Honaunau, Hawaii
Current Conditions -  °F | °C
As of 12:53 AM on Wednesday 26 Nov 2014 (Local Time) from PHKO Reporting Station
Clear Clear  
Wind Chill: 73°   Ceiling: Unl
Heat Index: 73°   Visibility: 10mi
Dew Point: 66°   Wind: 5mph
Humidity: 79%   Direction: 60°ENE
Pressure: 29.98"   Gusts: NA
Location:  19.42°N, 155.91°W
Report Text: PHKO 261053Z AUTO 06004KT 10SM CLR 23/19 A2998 RMK AO2 SLP154 T02280189 TSNO
Loading
Personal Weather Stations






























Interactive Weather Map New forecast layout! Learn more

10-Day Weather Forecast

Advertisements
Track Severe Weather on mobile